createdAt,value
2022-12-17T00:00:47.946Z,54.95
2022-12-17T00:03:33.229Z,56.17
2022-12-17T00:06:18.269Z,54.80
2022-12-17T00:09:03.334Z,53.35
2022-12-17T00:11:48.400Z,55.58
2022-12-17T00:14:33.180Z,56.63
2022-12-17T00:17:18.170Z,53.53
2022-12-17T00:20:03.012Z,57.30
2022-12-17T00:22:47.851Z,56.75
2022-12-17T00:25:32.759Z,56.72
2022-12-17T00:28:17.953Z,52.95
2022-12-17T00:31:09.699Z,56.35
2022-12-17T00:33:55.315Z,55.83
2022-12-17T00:36:41.446Z,55.92
2022-12-17T00:39:26.656Z,56.95
2022-12-17T00:42:11.665Z,53.88
2022-12-17T00:44:56.776Z,55.25
2022-12-17T00:47:41.703Z,52.10
2022-12-17T00:50:27.392Z,52.45
2022-12-17T00:53:13.017Z,53.33
2022-12-17T00:55:58.442Z,56.05
2022-12-17T00:58:43.318Z,52.13
2022-12-17T01:01:29.250Z,54.35
2022-12-17T01:04:14.595Z,54.70
2022-12-17T01:06:59.714Z,56.45
2022-12-17T01:09:48.583Z,59.38
2022-12-17T01:12:33.716Z,55.58
2022-12-17T01:15:18.647Z,55.78
2022-12-17T01:18:03.598Z,59.53
2022-12-17T01:20:48.769Z,57.25
2022-12-17T01:23:34.407Z,62.50
2022-12-17T01:26:20.856Z,57.17
2022-12-17T01:29:05.773Z,59.25
2022-12-17T01:31:51.031Z,61.40
2022-12-17T01:34:36.379Z,59.42
2022-12-17T01:37:21.980Z,61.60
2022-12-17T01:40:07.274Z,60.53
2022-12-17T01:42:57.511Z,59.33
2022-12-17T01:45:42.599Z,61.78
2022-12-17T01:48:32.356Z,53.25
2022-12-17T01:51:17.583Z,56.85
2022-12-17T01:54:08.528Z,57.97
2022-12-17T01:56:56.376Z,54.00
2022-12-17T01:59:46.038Z,49.80
2022-12-17T02:02:31.406Z,52.13
2022-12-17T02:05:16.894Z,49.95
2022-12-17T02:08:08.171Z,44.28
2022-12-17T02:11:12.630Z,48.03
2022-12-17T02:14:01.448Z,41.00
2022-12-17T02:17:03.868Z,38.13
2022-12-17T02:19:48.987Z,42.55
2022-12-17T02:22:56.342Z,40.05
2022-12-17T02:25:51.164Z,41.80
2022-12-17T02:28:37.345Z,38.70
2022-12-17T02:31:24.287Z,36.45
2022-12-17T02:34:09.877Z,30.60
2022-12-17T02:36:55.078Z,31.83
2022-12-17T02:39:48.035Z,31.85
2022-12-17T02:42:33.252Z,30.40
2022-12-17T02:45:19.899Z,30.40
2022-12-17T02:48:06.301Z,31.38
2022-12-17T02:50:51.337Z,28.25
2022-12-17T02:53:40.118Z,24.98
2022-12-17T02:56:25.174Z,25.70
2022-12-17T02:59:10.367Z,26.17
2022-12-17T03:01:56.984Z,26.60
2022-12-17T03:04:42.415Z,28.02
2022-12-17T03:07:27.818Z,26.40
2022-12-17T03:10:12.993Z,25.35
2022-12-17T03:13:00.954Z,25.85
2022-12-17T03:15:46.244Z,24.40
2022-12-17T03:18:32.682Z,22.50
2022-12-17T03:21:17.946Z,23.00
2022-12-17T03:24:02.903Z,19.27
2022-12-17T03:26:47.951Z,20.05
2022-12-17T03:29:32.821Z,20.95
2022-12-17T03:32:17.743Z,20.15
2022-12-17T03:35:02.563Z,21.17
2022-12-17T03:37:47.567Z,19.33
2022-12-17T03:40:32.672Z,19.00
2022-12-17T03:43:24.584Z,19.42
2022-12-17T03:46:12.931Z,19.98
2022-12-17T03:48:58.204Z,21.80
2022-12-17T03:51:43.136Z,19.73
2022-12-17T03:54:28.059Z,19.15
2022-12-17T03:57:16.028Z,17.88
2022-12-17T04:00:01.461Z,21.98
2022-12-17T04:02:46.575Z,22.33
2022-12-17T04:05:31.656Z,22.45
2022-12-17T04:08:16.823Z,21.70
2022-12-17T04:11:01.996Z,21.98
2022-12-17T04:13:47.594Z,23.05
2022-12-17T04:16:33.374Z,22.67
2022-12-17T04:19:18.515Z,24.67
2022-12-17T04:22:03.757Z,25.13
2022-12-17T04:24:48.575Z,24.48
2022-12-17T04:27:33.599Z,24.35
2022-12-17T04:30:18.940Z,23.38
2022-12-17T04:33:04.278Z,25.52
2022-12-17T04:35:49.461Z,25.35
2022-12-17T04:38:34.600Z,26.13
2022-12-17T04:41:19.999Z,25.77
2022-12-17T04:44:04.917Z,23.55
2022-12-17T04:46:50.219Z,25.98
2022-12-17T04:49:35.371Z,26.50
2022-12-17T04:52:20.779Z,25.15
2022-12-17T04:55:06.068Z,28.15
2022-12-17T04:57:51.238Z,24.33
2022-12-17T05:00:36.427Z,25.55
2022-12-17T05:03:25.725Z,29.02
2022-12-17T05:06:10.873Z,24.92
2022-12-17T05:08:55.883Z,25.35
2022-12-17T05:11:41.292Z,26.95
2022-12-17T05:14:26.457Z,26.10
2022-12-17T05:17:11.392Z,22.85
2022-12-17T05:19:56.689Z,23.83
2022-12-17T05:22:41.667Z,26.50
2022-12-17T05:25:27.001Z,25.80
2022-12-17T05:28:12.139Z,24.35
2022-12-17T05:31:00.110Z,26.13
2022-12-17T05:33:45.673Z,23.35
2022-12-17T05:36:30.878Z,24.85
2022-12-17T05:39:15.768Z,24.50
2022-12-17T05:42:00.623Z,26.23
2022-12-17T05:44:45.770Z,25.77
2022-12-17T05:47:31.090Z,23.35
2022-12-17T05:50:23.758Z,24.55
2022-12-17T05:53:08.578Z,24.70
2022-12-17T05:55:53.787Z,23.77
2022-12-17T05:58:39.095Z,22.58
2022-12-17T06:01:24.862Z,23.00
2022-12-17T06:04:10.109Z,22.25
2022-12-17T06:06:55.404Z,22.73
2022-12-17T06:09:40.712Z,20.27
2022-12-17T06:12:25.988Z,20.73
2022-12-17T06:15:11.102Z,23.15
2022-12-17T06:17:56.172Z,22.85
2022-12-17T06:20:41.055Z,19.55
2022-12-17T06:23:29.286Z,21.45
2022-12-17T06:26:15.300Z,22.90
2022-12-17T06:29:00.924Z,23.83
2022-12-17T06:31:46.528Z,22.52
2022-12-17T06:34:31.693Z,21.02
2022-12-17T06:37:16.874Z,18.80
2022-12-17T06:40:01.750Z,19.73
2022-12-17T06:42:46.939Z,21.92
2022-12-17T06:45:32.123Z,21.67
2022-12-17T06:48:25.850Z,20.67
2022-12-17T06:51:14.596Z,24.38
2022-12-17T06:54:00.800Z,22.45
2022-12-17T06:56:46.033Z,21.80
2022-12-17T06:59:31.145Z,24.70
2022-12-17T07:02:16.271Z,22.38
2022-12-17T07:05:01.578Z,24.75
2022-12-17T07:07:46.704Z,25.13
2022-12-17T07:10:31.641Z,22.75
2022-12-17T07:13:26.190Z,24.25
2022-12-17T07:16:11.969Z,24.40
2022-12-17T07:18:57.768Z,24.48
2022-12-17T07:21:43.057Z,21.95
2022-12-17T07:24:28.338Z,24.35
2022-12-17T07:27:13.258Z,26.00
2022-12-17T07:29:58.407Z,26.92
2022-12-17T07:32:43.559Z,25.05
2022-12-17T07:35:28.635Z,26.05
2022-12-17T07:38:18.386Z,23.98
2022-12-17T07:41:04.181Z,25.48
2022-12-17T07:43:52.937Z,23.27
2022-12-17T07:46:38.544Z,22.00
2022-12-17T07:49:25.895Z,25.35
2022-12-17T07:52:12.079Z,24.55
2022-12-17T07:54:57.334Z,24.02
2022-12-17T07:57:42.865Z,26.85
2022-12-17T08:00:28.798Z,25.17
2022-12-17T08:03:17.963Z,25.50
2022-12-17T08:06:03.253Z,24.88
2022-12-17T08:08:48.636Z,23.77
2022-12-17T08:11:33.859Z,25.60
2022-12-17T08:14:18.844Z,23.70
2022-12-17T08:17:04.097Z,24.38
2022-12-17T08:19:49.353Z,24.48
2022-12-17T08:22:34.380Z,26.35
2022-12-17T08:25:19.492Z,25.77
2022-12-17T08:28:07.388Z,23.63
2022-12-17T08:30:55.842Z,23.42
2022-12-17T08:33:41.264Z,26.20
2022-12-17T08:36:27.660Z,25.50
2022-12-17T08:39:12.876Z,24.77
2022-12-17T08:42:03.940Z,27.40
2022-12-17T08:44:49.671Z,24.80
2022-12-17T08:47:34.656Z,23.13
2022-12-17T08:50:19.787Z,22.95
2022-12-17T08:53:05.040Z,22.85
2022-12-17T08:55:49.991Z,22.40
2022-12-17T08:58:35.068Z,23.27
2022-12-17T09:01:20.227Z,24.55
2022-12-17T09:04:05.652Z,26.20
2022-12-17T09:06:52.084Z,25.45
2022-12-17T09:09:37.381Z,22.70
2022-12-17T09:12:22.622Z,23.27
2022-12-17T09:15:07.895Z,25.80
2022-12-17T09:17:53.083Z,24.67
2022-12-17T09:20:39.098Z,23.45
2022-12-17T09:23:24.231Z,24.40
2022-12-17T09:26:16.412Z,27.35
2022-12-17T09:29:01.598Z,27.98
2022-12-17T09:31:46.723Z,24.92
2022-12-17T09:34:31.717Z,24.95
2022-12-17T09:37:19.210Z,25.98
2022-12-17T09:40:04.560Z,25.33
2022-12-17T09:43:10.582Z,30.63
2022-12-17T09:46:09.522Z,27.83
2022-12-17T09:49:01.533Z,27.38
2022-12-17T09:51:47.748Z,28.88
2022-12-17T09:55:01.460Z,28.45
2022-12-17T09:57:49.519Z,28.88
2022-12-17T10:00:42.063Z,27.27
2022-12-17T10:03:45.901Z,31.63
2022-12-17T10:06:35.781Z,31.58
2022-12-17T10:09:28.737Z,31.90
2022-12-17T10:12:14.394Z,28.40
2022-12-17T10:14:59.623Z,30.08
2022-12-17T10:17:44.822Z,30.33
2022-12-17T10:20:57.535Z,29.63
2022-12-17T10:23:44.226Z,29.60
2022-12-17T10:26:36.138Z,33.10
2022-12-17T10:29:30.042Z,30.90
2022-12-17T10:32:18.704Z,31.05
2022-12-17T10:35:05.890Z,32.65
2022-12-17T10:37:53.337Z,30.55
2022-12-17T10:40:47.658Z,30.25
2022-12-17T10:43:44.033Z,31.85
2022-12-17T10:46:29.303Z,31.27
2022-12-17T10:49:29.930Z,31.42
2022-12-17T10:52:25.439Z,31.35
2022-12-17T10:55:16.191Z,31.20
2022-12-17T10:58:01.783Z,31.20
2022-12-17T11:00:56.689Z,29.08
2022-12-17T11:03:46.398Z,31.17
2022-12-17T11:06:37.478Z,28.52
2022-12-17T11:09:33.666Z,28.83
2022-12-17T11:12:19.846Z,30.85
2022-12-17T11:15:09.673Z,30.92
2022-12-17T11:17:56.034Z,32.92
2022-12-17T11:20:43.562Z,32.33
2022-12-17T11:23:36.720Z,29.90
2022-12-17T11:26:26.530Z,31.50
2022-12-17T11:29:11.724Z,30.80
2022-12-17T11:32:23.620Z,31.30
2022-12-17T11:35:43.259Z,31.02
2022-12-17T11:38:52.528Z,31.33
2022-12-17T11:42:00.962Z,30.05
2022-12-17T11:44:59.291Z,31.38
2022-12-17T11:47:57.544Z,32.67
2022-12-17T11:50:51.988Z,33.15
2022-12-17T11:53:51.083Z,32.88
2022-12-17T11:56:46.276Z,28.13
2022-12-17T11:59:52.859Z,30.50
2022-12-17T12:02:58.267Z,31.00
2022-12-17T12:06:11.458Z,31.15
2022-12-17T12:09:02.979Z,31.08
2022-12-17T12:11:57.730Z,30.55
2022-12-17T12:15:01.866Z,31.73
2022-12-17T12:18:05.562Z,30.67
2022-12-17T12:21:24.885Z,33.17
2022-12-17T12:24:27.015Z,33.30
2022-12-17T12:27:21.799Z,33.70
2022-12-17T12:30:29.088Z,32.90
2022-12-17T12:33:22.918Z,33.25
2022-12-17T12:36:19.175Z,33.13
2022-12-17T12:39:05.325Z,36.17
2022-12-17T12:42:09.417Z,32.40
2022-12-17T12:45:19.169Z,33.08
2022-12-17T12:48:25.571Z,30.40
2022-12-17T12:51:41.880Z,28.83
2022-12-17T12:55:02.910Z,29.23
2022-12-17T12:57:50.754Z,28.77
2022-12-17T13:00:56.305Z,29.73
2022-12-17T13:03:49.733Z,27.90
2022-12-17T13:06:39.997Z,26.50
2022-12-17T13:09:15.776Z,30.30
2022-12-17T13:12:00.174Z,30.00
2022-12-17T13:14:29.163Z,31.17
2022-12-17T13:17:08.061Z,31.05
2022-12-17T13:19:47.346Z,30.75
2022-12-17T13:22:23.781Z,31.33
2022-12-17T13:24:52.860Z,31.13
2022-12-17T13:27:31.193Z,30.08
2022-12-17T13:29:59.859Z,32.47
2022-12-17T13:32:33.994Z,29.90
2022-12-17T13:35:12.779Z,31.00
2022-12-17T13:37:59.974Z,30.33
2022-12-17T13:40:45.458Z,31.63
2022-12-17T13:43:18.028Z,32.03
2022-12-17T13:45:44.872Z,31.88
2022-12-17T13:48:21.337Z,32.22
2022-12-17T13:50:59.979Z,31.20
2022-12-17T13:53:27.615Z,29.67
2022-12-17T13:55:57.044Z,28.48
2022-12-17T13:58:26.927Z,29.85
2022-12-17T14:01:14.650Z,32.08
2022-12-17T14:06:37.848Z,29.65
2022-12-17T14:09:04.808Z,33.05
2022-12-17T14:11:50.455Z,30.90
2022-12-17T14:14:31.360Z,29.98
2022-12-17T14:19:24.776Z,29.67
2022-12-17T14:21:51.621Z,30.33
2022-12-17T14:24:23.189Z,28.35
2022-12-17T14:26:50.977Z,28.10
2022-12-17T14:29:26.019Z,30.73
2022-12-17T14:31:57.729Z,32.58
2022-12-17T14:34:24.926Z,33.08
2022-12-17T14:37:18.490Z,35.08
2022-12-17T14:39:46.821Z,29.88
2022-12-17T14:42:26.441Z,32.55
2022-12-17T14:44:55.802Z,34.03
2022-12-17T14:47:30.053Z,32.42
2022-12-17T14:50:11.836Z,34.05
2022-12-17T14:52:42.645Z,32.63
2022-12-17T14:55:35.389Z,34.00
2022-12-17T14:58:14.061Z,29.90
2022-12-17T15:00:43.386Z,29.00
2022-12-17T15:03:11.919Z,30.60
2022-12-17T15:05:38.689Z,32.47
2022-12-17T15:08:05.656Z,28.48
2022-12-17T15:10:32.182Z,31.15
2022-12-17T15:12:58.720Z,34.25
2022-12-17T15:15:25.250Z,32.75
2022-12-17T15:17:51.815Z,31.83
2022-12-17T15:20:20.720Z,31.77
2022-12-17T15:22:47.876Z,30.35
2022-12-17T15:25:16.117Z,31.80
2022-12-17T15:27:42.718Z,31.30
2022-12-17T15:30:19.226Z,33.65
2022-12-17T15:32:46.187Z,32.05
2022-12-17T15:35:13.220Z,33.05
2022-12-17T15:37:39.855Z,37.22
2022-12-17T15:40:07.209Z,37.47
2022-12-17T15:42:52.465Z,37.65
2022-12-17T15:45:19.453Z,35.42
2022-12-17T15:47:46.047Z,36.97
2022-12-17T15:50:12.590Z,39.15
2022-12-17T15:52:39.078Z,37.70
2022-12-17T15:55:06.004Z,37.58
2022-12-17T15:57:32.538Z,39.20
2022-12-17T15:59:59.174Z,38.28
2022-12-17T16:02:26.025Z,42.20
2022-12-17T16:04:52.807Z,37.72
2022-12-17T16:07:19.323Z,36.30
2022-12-17T16:09:45.863Z,36.78
2022-12-17T16:12:12.418Z,35.65
2022-12-17T16:14:38.908Z,36.53
2022-12-17T16:17:05.437Z,38.55
2022-12-17T16:19:31.995Z,36.03
2022-12-17T16:21:58.534Z,35.78
2022-12-17T16:24:25.047Z,37.08
2022-12-17T16:26:51.579Z,34.70
2022-12-17T16:29:18.148Z,35.85
2022-12-17T16:31:46.107Z,36.33
2022-12-17T16:34:13.279Z,36.15
2022-12-17T16:36:39.977Z,40.70
2022-12-17T16:39:06.634Z,40.72
2022-12-17T16:41:33.602Z,37.58
2022-12-17T16:44:00.829Z,37.05
2022-12-17T16:46:32.750Z,37.35
2022-12-17T16:49:04.545Z,38.58
2022-12-17T16:51:31.088Z,40.28
2022-12-17T16:53:58.237Z,34.53
2022-12-17T16:56:28.505Z,33.05
2022-12-17T16:58:55.453Z,41.70
2022-12-17T17:01:28.002Z,37.35
2022-12-17T17:03:55.431Z,33.72
2022-12-17T17:06:22.679Z,37.95
2022-12-17T17:08:49.558Z,35.25
2022-12-17T17:11:21.244Z,37.47
2022-12-17T17:13:49.746Z,31.77
2022-12-17T17:16:17.642Z,30.52
2022-12-17T17:18:44.241Z,33.20
2022-12-17T17:21:23.388Z,33.75
2022-12-17T17:23:53.482Z,35.08
2022-12-17T17:26:24.327Z,35.47
2022-12-17T17:28:51.860Z,34.45
2022-12-17T17:31:18.816Z,30.05
2022-12-17T17:33:48.656Z,31.70
2022-12-17T17:36:19.504Z,28.52
2022-12-17T17:41:15.585Z,28.48
2022-12-17T17:43:42.225Z,29.02
2022-12-17T17:46:11.720Z,28.95
2022-12-17T17:48:38.615Z,28.77
2022-12-17T17:51:29.495Z,30.08
2022-12-17T17:54:09.641Z,31.00
2022-12-17T17:56:41.315Z,33.00
2022-12-17T17:59:13.248Z,30.13
2022-12-17T18:01:42.616Z,31.05
2022-12-17T18:04:15.304Z,32.57
2022-12-17T18:07:02.535Z,33.08
2022-12-17T18:09:30.085Z,28.95
2022-12-17T18:11:56.618Z,28.85
2022-12-17T18:14:23.172Z,26.30
2022-12-17T18:16:49.756Z,27.58
2022-12-17T18:19:19.718Z,25.92
2022-12-17T18:21:47.406Z,25.17
2022-12-17T18:24:19.583Z,27.35
2022-12-17T18:26:47.983Z,25.55
2022-12-17T18:29:16.801Z,27.75
2022-12-17T18:31:48.489Z,27.65
2022-12-17T18:34:20.547Z,28.52
2022-12-17T18:36:48.244Z,29.05
2022-12-17T18:39:16.038Z,28.48
2022-12-17T18:42:02.214Z,32.25
2022-12-17T18:44:29.637Z,35.58
2022-12-17T18:46:56.311Z,36.42
2022-12-17T18:49:26.665Z,33.10
2022-12-17T18:51:54.227Z,34.33
2022-12-17T18:54:23.198Z,33.67
2022-12-17T18:57:01.051Z,33.10
2022-12-17T18:59:29.700Z,32.10
2022-12-17T19:01:56.648Z,33.55
2022-12-17T19:04:23.973Z,29.90
2022-12-17T19:06:53.508Z,28.52
2022-12-17T19:09:23.483Z,43.25
2022-12-17T19:11:50.791Z,30.73
2022-12-17T19:14:17.967Z,30.70
2022-12-17T19:16:45.139Z,29.67
2022-12-17T19:19:13.093Z,34.42
2022-12-17T19:21:40.172Z,28.95
2022-12-17T19:24:09.081Z,29.50
2022-12-17T19:26:35.808Z,25.75
2022-12-17T19:29:03.051Z,30.20
2022-12-17T19:31:31.375Z,24.85
2022-12-17T19:33:59.985Z,30.17
2022-12-17T19:36:28.736Z,28.08
2022-12-17T19:38:57.526Z,26.95
2022-12-17T19:41:25.336Z,25.30
2022-12-17T19:43:57.028Z,30.13
2022-12-17T19:46:24.998Z,28.73
2022-12-17T19:48:52.514Z,32.85
2022-12-17T19:51:22.292Z,33.08
2022-12-17T19:53:49.997Z,29.80
2022-12-17T19:56:27.196Z,29.15
2022-12-17T19:59:00.902Z,39.13
2022-12-17T20:01:32.589Z,33.22
2022-12-17T20:03:59.911Z,30.10
2022-12-17T20:06:29.676Z,27.45
2022-12-17T20:08:58.150Z,29.20
2022-12-17T20:11:33.959Z,25.60
2022-12-17T20:14:01.763Z,25.73
2022-12-17T20:16:30.464Z,27.30
2022-12-17T20:18:59.655Z,25.23
2022-12-17T20:21:26.204Z,25.00
2022-12-17T20:23:52.785Z,25.50
2022-12-17T20:26:19.409Z,29.23
2022-12-17T20:28:46.291Z,25.05
2022-12-17T20:31:13.127Z,25.15
2022-12-17T20:33:39.776Z,32.28
2022-12-17T20:36:12.654Z,30.45
2022-12-17T20:38:39.613Z,26.00
2022-12-17T20:41:27.876Z,28.83
2022-12-17T20:43:56.221Z,28.95
2022-12-17T20:46:24.255Z,26.75
2022-12-17T20:48:50.839Z,34.40
2022-12-17T20:51:22.699Z,28.45
2022-12-17T20:53:49.448Z,29.90
2022-12-17T20:56:17.812Z,29.55
2022-12-17T20:58:44.568Z,28.70
2022-12-17T21:01:12.964Z,30.67
2022-12-17T21:03:39.975Z,30.05
2022-12-17T21:06:12.302Z,29.55
2022-12-17T21:08:42.396Z,31.52
2022-12-17T21:11:13.123Z,31.85
2022-12-17T21:13:39.736Z,29.58
2022-12-17T21:16:10.797Z,32.60
2022-12-17T21:18:37.707Z,30.13
2022-12-17T21:21:07.531Z,33.00
2022-12-17T21:23:36.256Z,34.08
2022-12-17T21:26:09.940Z,33.03
2022-12-17T21:28:38.381Z,30.48
2022-12-17T21:31:05.759Z,32.10
2022-12-17T21:33:32.382Z,29.88
2022-12-17T21:36:01.172Z,29.05
2022-12-17T21:38:34.279Z,28.77
2022-12-17T21:41:06.557Z,34.78
2022-12-17T21:43:34.243Z,29.50
2022-12-17T21:46:01.021Z,28.98
2022-12-17T21:48:27.675Z,30.25
2022-12-17T21:50:54.431Z,27.00
2022-12-17T21:53:21.362Z,27.25
2022-12-17T21:55:48.474Z,28.58
2022-12-17T21:58:15.534Z,29.98
2022-12-17T22:00:42.644Z,31.50
2022-12-17T22:03:09.197Z,29.63
2022-12-17T22:05:37.432Z,28.80
2022-12-17T22:08:04.973Z,32.88
2022-12-17T22:10:42.355Z,30.67
2022-12-17T22:13:34.162Z,29.80
2022-12-17T22:16:01.282Z,29.25
2022-12-17T22:18:27.926Z,27.05
2022-12-17T22:20:59.377Z,31.13
2022-12-17T22:23:25.981Z,28.10
2022-12-17T22:25:52.857Z,27.48
2022-12-17T22:28:19.375Z,20.70
2022-12-17T22:31:04.675Z,28.42
2022-12-17T22:34:10.316Z,28.27
2022-12-17T22:38:23.524Z,26.10
2022-12-17T22:42:31.025Z,24.13
2022-12-17T22:44:37.196Z,26.88
2022-12-17T22:45:10.183Z,29.85
2022-12-17T22:47:37.907Z,27.38
2022-12-17T22:50:04.742Z,28.88
2022-12-17T22:52:31.940Z,30.00
2022-12-17T22:54:59.149Z,22.65
2022-12-17T22:57:36.255Z,25.67
2022-12-17T23:00:16.805Z,28.85
2022-12-17T23:02:43.463Z,29.63
2022-12-17T23:05:10.021Z,30.50
2022-12-17T23:07:36.634Z,38.40
2022-12-17T23:10:04.939Z,30.13
2022-12-17T23:12:50.054Z,31.35
2022-12-17T23:15:19.878Z,28.08
2022-12-17T23:17:46.494Z,34.92
2022-12-17T23:20:14.143Z,27.98
2022-12-17T23:22:40.727Z,29.85
2022-12-17T23:25:08.011Z,26.90
2022-12-17T23:27:34.566Z,34.03
2022-12-17T23:30:01.190Z,31.27
2022-12-17T23:32:27.835Z,29.27
2022-12-17T23:34:54.387Z,28.08
2022-12-17T23:37:20.908Z,32.97
2022-12-17T23:39:47.408Z,27.88
2022-12-17T23:42:13.940Z,31.05
2022-12-17T23:44:40.504Z,34.17
2022-12-17T23:47:07.020Z,26.52
2022-12-17T23:49:33.511Z,36.22
2022-12-17T23:52:00.038Z,34.95
2022-12-17T23:54:26.604Z,32.83
2022-12-17T23:56:53.138Z,34.33
2022-12-17T23:59:19.705Z,35.63
